createdAt,value
2023-05-02T00:02:06.691Z,43.28
2023-05-02T00:05:07.017Z,44.35
2023-05-02T00:07:34.149Z,42.91
2023-05-02T00:10:03.020Z,42.63
2023-05-02T00:12:30.319Z,43.08
2023-05-02T00:14:57.342Z,42.89
2023-05-02T00:17:24.458Z,42.00
2023-05-02T00:19:51.448Z,42.67
2023-05-02T00:22:18.676Z,41.83
2023-05-02T00:24:45.668Z,42.39
2023-05-02T00:27:12.668Z,42.92
2023-05-02T00:29:39.692Z,42.94
2023-05-02T00:32:07.029Z,43.52
2023-05-02T00:34:34.569Z,41.80
2023-05-02T00:37:01.567Z,41.75
2023-05-02T00:39:28.514Z,42.80
2023-05-02T00:41:58.997Z,42.74
2023-05-02T00:44:26.250Z,43.08
2023-05-02T00:46:53.715Z,43.16
2023-05-02T00:49:21.005Z,42.63
2023-05-02T00:51:48.128Z,43.23
2023-05-02T00:54:15.338Z,42.73
2023-05-02T00:56:42.556Z,43.10
2023-05-02T00:59:11.479Z,42.32
2023-05-02T01:01:58.033Z,42.49
2023-05-02T01:04:48.985Z,41.60
2023-05-02T01:07:35.338Z,42.27
2023-05-02T01:10:21.315Z,42.27
2023-05-02T01:12:57.190Z,44.60
2023-05-02T01:15:24.674Z,45.66
2023-05-02T01:17:53.756Z,45.70
2023-05-02T01:20:24.058Z,46.42
2023-05-02T01:22:52.456Z,46.37
2023-05-02T01:26:05.584Z,48.00
2023-05-02T01:28:53.568Z,48.68
2023-05-02T01:31:22.311Z,50.51
2023-05-02T01:33:50.187Z,50.41
2023-05-02T01:36:18.074Z,50.95
2023-05-02T01:38:45.786Z,49.92
2023-05-02T01:41:13.917Z,49.01
2023-05-02T01:43:42.701Z,48.69
2023-05-02T01:46:12.322Z,49.25
2023-05-02T01:48:41.041Z,49.12
2023-05-02T01:51:09.346Z,48.95
2023-05-02T01:53:37.658Z,48.54
2023-05-02T01:56:06.101Z,47.67
2023-05-02T01:58:35.793Z,46.59
2023-05-02T02:01:04.436Z,45.93
2023-05-02T02:03:32.807Z,45.66
2023-05-02T02:06:01.403Z,45.04
2023-05-02T02:08:28.459Z,45.07
2023-05-02T02:11:02.028Z,44.94
2023-05-02T02:13:54.322Z,45.21
2023-05-02T02:16:31.353Z,45.49
2023-05-02T02:19:04.710Z,46.04
2023-05-02T02:21:34.499Z,46.32
2023-05-02T02:24:04.192Z,47.49
2023-05-02T02:26:31.438Z,46.96
2023-05-02T02:29:00.116Z,47.66
2023-05-02T02:31:35.646Z,48.08
2023-05-02T02:34:03.776Z,48.66
2023-05-02T02:36:57.552Z,48.56
2023-05-02T02:39:33.555Z,48.61
2023-05-02T02:42:27.794Z,48.65
2023-05-02T02:45:17.329Z,48.80
2023-05-02T02:47:49.046Z,48.68
2023-05-02T02:50:51.489Z,49.21
2023-05-02T02:53:23.794Z,49.07
2023-05-02T02:56:20.086Z,49.85
2023-05-02T02:59:05.643Z,49.52
2023-05-02T03:01:34.782Z,49.73
2023-05-02T03:04:08.263Z,49.37
2023-05-02T03:06:37.172Z,49.02
2023-05-02T03:09:05.706Z,50.39
2023-05-02T03:11:32.746Z,49.88
2023-05-02T03:13:59.817Z,49.68
2023-05-02T03:16:40.276Z,48.87
2023-05-02T03:19:11.641Z,48.71
2023-05-02T03:21:39.106Z,48.58
2023-05-02T03:24:19.504Z,48.18
2023-05-02T03:26:48.228Z,48.01
2023-05-02T03:29:18.747Z,47.29
2023-05-02T03:31:45.763Z,47.84
2023-05-02T03:34:13.061Z,48.90
2023-05-02T03:36:41.085Z,49.28
2023-05-02T03:39:08.178Z,48.72
2023-05-02T03:41:35.736Z,48.81
2023-05-02T03:44:07.404Z,48.40
2023-05-02T03:46:34.919Z,47.73
2023-05-02T03:49:05.684Z,47.73
2023-05-02T03:51:33.998Z,47.41
2023-05-02T03:54:05.318Z,47.61
2023-05-02T03:56:33.905Z,47.67
2023-05-02T03:59:16.321Z,47.79
2023-05-02T04:01:43.960Z,47.73
2023-05-02T04:04:14.070Z,47.41
2023-05-02T04:06:47.591Z,47.98
2023-05-02T04:09:15.409Z,49.46
2023-05-02T04:11:49.509Z,50.08
2023-05-02T04:14:16.705Z,49.64
2023-05-02T04:16:52.427Z,48.60
2023-05-02T04:19:32.182Z,49.12
2023-05-02T04:21:59.775Z,48.05
2023-05-02T04:24:27.047Z,48.85
2023-05-02T04:26:55.090Z,48.85
2023-05-02T04:29:22.231Z,48.53
2023-05-02T04:31:51.015Z,48.55
2023-05-02T04:34:18.592Z,48.29
2023-05-02T04:36:47.100Z,47.16
2023-05-02T04:39:19.555Z,47.24
2023-05-02T04:41:56.943Z,47.86
2023-05-02T04:44:26.875Z,44.61
2023-05-02T04:46:55.048Z,44.04
2023-05-02T04:49:22.057Z,42.60
2023-05-02T04:51:49.316Z,41.93
2023-05-02T04:54:16.509Z,43.65
2023-05-02T04:56:44.708Z,44.98
2023-05-02T04:59:13.003Z,43.86
2023-05-02T05:01:40.380Z,42.22
2023-05-02T05:04:09.208Z,41.12
2023-05-02T05:06:36.718Z,40.22
2023-05-02T05:09:04.875Z,39.04
2023-05-02T05:11:33.975Z,38.86
2023-05-02T05:14:04.205Z,37.10
2023-05-02T05:16:33.570Z,36.15
2023-05-02T05:19:01.720Z,36.11
2023-05-02T05:21:29.204Z,35.08
2023-05-02T05:23:57.933Z,32.62
2023-05-02T05:26:28.410Z,33.42
2023-05-02T05:28:56.147Z,33.65
2023-05-02T05:31:26.333Z,36.13
2023-05-02T05:33:57.521Z,29.65
2023-05-02T05:36:25.851Z,29.97
2023-05-02T05:38:52.927Z,30.16
2023-05-02T05:41:20.359Z,34.99
2023-05-02T05:43:52.066Z,38.49
2023-05-02T05:46:19.073Z,39.85
2023-05-02T05:48:46.383Z,38.71
2023-05-02T05:51:13.516Z,36.18
2023-05-02T05:53:40.506Z,38.93
2023-05-02T05:56:12.580Z,35.40
2023-05-02T05:58:44.357Z,34.25
2023-05-02T06:01:13.622Z,32.87
2023-05-02T06:03:42.130Z,32.93
2023-05-02T06:06:09.447Z,34.51
2023-05-02T06:08:36.608Z,31.94
2023-05-02T06:11:10.864Z,32.98
2023-05-02T06:13:38.656Z,32.55
2023-05-02T06:16:07.002Z,32.44
2023-05-02T06:18:34.085Z,29.77
2023-05-02T06:21:07.357Z,26.86
2023-05-02T06:23:34.712Z,25.92
2023-05-02T06:26:03.028Z,30.81
2023-05-02T06:28:31.165Z,31.17
2023-05-02T06:31:03.627Z,32.02
2023-05-02T06:33:31.933Z,31.25
2023-05-02T06:36:01.632Z,31.13
2023-05-02T06:38:29.786Z,29.23
2023-05-02T06:40:56.942Z,29.03
2023-05-02T06:43:24.134Z,30.80
2023-05-02T06:45:54.808Z,28.42
2023-05-02T06:48:22.396Z,29.17
2023-05-02T06:50:49.914Z,28.86
2023-05-02T06:53:17.073Z,29.63
2023-05-02T06:55:46.391Z,27.37
2023-05-02T06:58:13.590Z,28.45
2023-05-02T07:00:41.662Z,30.59
2023-05-02T07:03:08.758Z,29.28
2023-05-02T07:05:35.983Z,31.91
2023-05-02T07:08:03.386Z,30.34
2023-05-02T07:10:30.425Z,30.77
2023-05-02T07:12:57.416Z,31.73
2023-05-02T07:15:24.391Z,32.88
2023-05-02T07:17:51.877Z,33.14
2023-05-02T07:20:20.026Z,34.12
2023-05-02T07:22:47.055Z,34.24
2023-05-02T07:25:14.026Z,32.73
2023-05-02T07:27:41.062Z,30.10
2023-05-02T07:30:08.666Z,30.41
2023-05-02T07:32:35.733Z,33.89
2023-05-02T07:35:02.802Z,28.53
2023-05-02T07:37:34.752Z,28.39
2023-05-02T07:40:02.365Z,32.13
2023-05-02T07:42:32.419Z,28.81
2023-05-02T07:45:00.216Z,31.90
2023-05-02T07:47:27.770Z,30.93
2023-05-02T07:49:55.864Z,29.86
2023-05-02T07:52:22.880Z,29.72
2023-05-02T07:54:50.211Z,30.29
2023-05-02T07:57:17.787Z,29.38
2023-05-02T07:59:45.342Z,29.97
2023-05-02T08:02:14.309Z,29.42
2023-05-02T08:04:41.576Z,30.33
2023-05-02T08:07:08.949Z,28.79
2023-05-02T08:09:36.015Z,28.30
2023-05-02T08:12:03.512Z,28.50
2023-05-02T08:14:30.857Z,28.22
2023-05-02T08:16:58.944Z,30.03
2023-05-02T08:19:26.022Z,27.06
2023-05-02T08:21:56.432Z,26.18
2023-05-02T08:24:23.467Z,28.71
2023-05-02T08:26:50.979Z,28.52
2023-05-02T08:29:18.020Z,28.59
2023-05-02T08:31:45.134Z,28.78
2023-05-02T08:34:12.249Z,26.24
2023-05-02T08:36:39.362Z,28.14
2023-05-02T08:39:08.308Z,29.15
2023-05-02T08:41:35.658Z,28.70
2023-05-02T08:44:04.108Z,27.34
2023-05-02T08:46:32.667Z,26.32
2023-05-02T08:49:00.802Z,28.13
2023-05-02T08:51:29.575Z,27.73
2023-05-02T08:53:58.394Z,27.25
2023-05-02T08:56:25.582Z,26.17
2023-05-02T08:58:52.643Z,25.84
2023-05-02T09:01:22.941Z,27.29
2023-05-02T09:03:50.735Z,27.94
2023-05-02T09:06:20.810Z,25.62
2023-05-02T09:08:50.418Z,24.82
2023-05-02T09:11:17.747Z,25.96
2023-05-02T09:13:48.603Z,25.66
2023-05-02T09:16:22.996Z,26.91
2023-05-02T09:18:52.909Z,27.67
2023-05-02T09:21:28.166Z,27.95
2023-05-02T09:23:57.069Z,25.61
2023-05-02T09:26:35.133Z,25.79
2023-05-02T09:29:05.541Z,25.62
2023-05-02T09:31:55.000Z,27.46
2023-05-02T09:34:23.174Z,25.85
2023-05-02T09:36:52.377Z,26.30
2023-05-02T09:39:23.815Z,27.23
2023-05-02T09:41:53.405Z,26.53
2023-05-02T10:17:10.005Z,27.07
2023-05-02T10:19:45.429Z,27.69
2023-05-02T10:22:13.386Z,25.83
2023-05-02T10:24:41.634Z,25.77
2023-05-02T10:27:08.815Z,28.29
2023-05-02T10:29:37.569Z,25.20
2023-05-02T10:32:05.738Z,27.81
2023-05-02T10:34:36.393Z,26.64
2023-05-02T10:37:03.685Z,27.80
2023-05-02T10:39:32.654Z,26.23
2023-05-02T10:42:03.310Z,27.30
2023-05-02T10:44:37.731Z,26.22
2023-05-02T10:47:21.909Z,27.02
2023-05-02T10:49:56.919Z,24.88
2023-05-02T10:52:35.703Z,26.49
2023-05-02T10:55:20.655Z,26.11
2023-05-02T10:58:08.734Z,27.66
2023-05-02T11:00:35.759Z,26.55
2023-05-02T11:03:03.372Z,25.84
2023-05-02T11:05:30.607Z,25.23
2023-05-02T11:08:15.668Z,25.90
2023-05-02T11:10:42.984Z,26.19
2023-05-02T11:13:09.944Z,27.30
2023-05-02T11:15:39.934Z,25.77
2023-05-02T11:18:14.709Z,27.86
2023-05-02T11:20:45.876Z,26.81
2023-05-02T11:23:16.495Z,25.55
2023-05-02T11:25:46.515Z,26.81
2023-05-02T11:28:42.312Z,24.47
2023-05-02T11:31:31.164Z,25.54
2023-05-02T11:34:03.400Z,24.54
2023-05-02T11:36:33.705Z,25.17
2023-05-02T11:39:05.953Z,25.40
2023-05-02T11:41:42.479Z,25.77
2023-05-02T11:44:09.945Z,25.96
2023-05-02T11:46:38.465Z,26.52
2023-05-02T11:49:09.305Z,26.02
2023-05-02T11:51:37.561Z,27.69
2023-05-02T11:54:07.704Z,27.72
2023-05-02T11:56:34.898Z,26.81
2023-05-02T11:59:03.948Z,26.09
2023-05-02T12:01:31.537Z,26.22
2023-05-02T12:04:07.270Z,25.58
2023-05-02T12:06:35.099Z,25.95
2023-05-02T12:09:10.382Z,25.64
2023-05-02T12:11:38.592Z,25.67
2023-05-02T12:14:06.935Z,24.42
2023-05-02T12:16:34.410Z,25.31
2023-05-02T12:19:02.115Z,24.50
2023-05-02T12:21:35.948Z,24.61
2023-05-02T12:24:03.674Z,24.91
2023-05-02T12:26:33.149Z,26.52
2023-05-02T12:29:02.109Z,26.35
2023-05-02T12:31:31.389Z,25.51
2023-05-02T12:34:00.484Z,26.06
2023-05-02T12:36:28.900Z,26.85
2023-05-02T12:38:59.885Z,26.21
2023-05-02T12:41:38.334Z,26.86
2023-05-02T12:44:08.375Z,26.71
2023-05-02T12:46:36.654Z,25.31
2023-05-02T12:49:09.498Z,25.67
2023-05-02T12:51:38.456Z,25.29
2023-05-02T12:54:06.838Z,25.16
2023-05-02T12:56:40.709Z,25.77
2023-05-02T12:59:08.481Z,24.42
2023-05-02T13:01:35.908Z,22.54
2023-05-02T13:04:04.005Z,23.56
2023-05-02T13:06:31.585Z,23.88
2023-05-02T13:08:59.133Z,23.43
2023-05-02T13:11:26.191Z,23.92
2023-05-02T13:13:54.130Z,24.43
2023-05-02T13:16:21.666Z,25.26
2023-05-02T13:18:48.862Z,25.71
2023-05-02T13:21:16.263Z,26.25
2023-05-02T13:23:44.371Z,25.19
2023-05-02T13:26:11.776Z,25.95
2023-05-02T13:28:38.749Z,28.11
2023-05-02T13:31:05.830Z,28.46
2023-05-02T13:33:32.813Z,27.33
2023-05-02T13:36:00.143Z,27.04
2023-05-02T13:38:27.204Z,27.94
2023-05-02T13:40:54.353Z,26.91
2023-05-02T13:43:21.591Z,27.39
2023-05-02T13:45:49.159Z,26.22
2023-05-02T13:48:16.424Z,25.64
2023-05-02T13:50:43.730Z,26.31
2023-05-02T13:53:11.390Z,26.54
2023-05-02T13:55:38.482Z,27.10
2023-05-02T13:58:06.046Z,27.15
2023-05-02T14:00:33.180Z,27.38
2023-05-02T14:03:00.374Z,28.78
2023-05-02T14:05:27.739Z,28.95
2023-05-02T14:07:54.774Z,29.51
2023-05-02T14:10:21.757Z,29.23
2023-05-02T14:12:48.981Z,29.56
2023-05-02T14:15:16.153Z,30.14
2023-05-02T14:17:43.240Z,30.53
2023-05-02T14:20:11.294Z,31.64
2023-05-02T14:22:38.290Z,32.14
2023-05-02T14:25:06.057Z,31.50
2023-05-02T14:27:33.022Z,30.97
2023-05-02T14:30:00.385Z,32.62
2023-05-02T14:32:27.787Z,32.11
2023-05-02T14:34:54.822Z,31.66
2023-05-02T14:37:22.097Z,32.17
2023-05-02T14:39:54.967Z,32.63
2023-05-02T14:42:25.801Z,31.80
2023-05-02T14:44:53.630Z,33.34
2023-05-02T14:47:21.068Z,33.42
2023-05-02T14:49:48.089Z,33.55
2023-05-02T14:52:15.120Z,34.69
2023-05-02T14:54:42.233Z,34.62
2023-05-02T14:57:09.585Z,34.88
2023-05-02T14:59:37.926Z,35.44
2023-05-02T15:02:05.248Z,34.95
2023-05-02T15:04:32.489Z,35.21
2023-05-02T15:07:02.919Z,35.07
2023-05-02T15:09:30.485Z,35.75
2023-05-02T15:11:57.502Z,36.04
2023-05-02T15:14:24.551Z,36.90
2023-05-02T15:16:52.013Z,36.76
2023-05-02T15:19:19.116Z,37.13
2023-05-02T15:21:46.145Z,36.28
2023-05-02T15:24:13.178Z,35.51
2023-05-02T15:26:41.156Z,36.14
2023-05-02T15:29:08.231Z,36.52
2023-05-02T15:31:35.381Z,35.76
2023-05-02T15:34:02.439Z,35.38
2023-05-02T15:36:30.585Z,35.24
2023-05-02T15:38:57.812Z,35.71
2023-05-02T15:41:27.734Z,36.30
2023-05-02T15:43:54.878Z,35.17
2023-05-02T15:46:22.196Z,35.65
2023-05-02T15:48:49.541Z,35.55
2023-05-02T15:51:17.099Z,36.19
2023-05-02T15:53:45.108Z,35.80
2023-05-02T15:56:12.553Z,35.94
2023-05-02T15:58:40.447Z,35.54
2023-05-02T16:01:07.949Z,35.27
2023-05-02T16:03:35.258Z,35.21
2023-05-02T16:06:05.562Z,35.53
2023-05-02T16:08:32.625Z,35.70
2023-05-02T16:11:01.533Z,35.50
2023-05-02T16:13:28.631Z,35.77
2023-05-02T16:15:56.319Z,36.58
2023-05-02T16:18:28.457Z,35.69
2023-05-02T16:20:57.216Z,34.84
2023-05-02T16:23:26.019Z,34.01
2023-05-02T16:26:02.491Z,33.85
2023-05-02T16:28:29.588Z,34.54
2023-05-02T16:30:56.963Z,34.38
2023-05-02T16:33:24.102Z,34.57
2023-05-02T16:36:01.515Z,33.74
2023-05-02T16:38:28.654Z,34.19
2023-05-02T16:40:55.703Z,34.36
2023-05-02T16:43:23.174Z,35.15
2023-05-02T16:46:03.538Z,34.68
2023-05-02T16:48:30.966Z,35.22
2023-05-02T16:50:58.718Z,37.38
2023-05-02T16:53:26.767Z,37.88
2023-05-02T16:55:54.380Z,37.05
2023-05-02T16:58:22.026Z,38.46
2023-05-02T17:00:49.194Z,39.21
2023-05-02T17:03:16.425Z,40.93
2023-05-02T17:05:43.797Z,40.85
2023-05-02T17:08:11.091Z,41.66
2023-05-02T17:10:38.174Z,41.79
2023-05-02T17:13:05.995Z,41.90
2023-05-02T17:15:38.650Z,42.96
2023-05-02T17:18:05.973Z,43.74
2023-05-02T17:20:33.387Z,43.27
2023-05-02T17:23:00.747Z,43.25
2023-05-02T17:25:27.986Z,42.94
2023-05-02T17:27:54.992Z,43.41
2023-05-02T17:30:22.243Z,42.86
2023-05-02T17:32:49.309Z,42.32
2023-05-02T17:35:17.512Z,42.51
2023-05-02T17:37:44.625Z,42.58
2023-05-02T17:40:12.482Z,41.82
2023-05-02T17:42:39.571Z,41.72
2023-05-02T17:45:07.749Z,40.36
2023-05-02T17:47:34.761Z,41.97
2023-05-02T17:50:04.936Z,40.59
2023-05-02T17:52:33.887Z,42.45
2023-05-02T17:55:01.438Z,41.17
2023-05-02T17:57:28.634Z,40.17
2023-05-02T17:59:59.849Z,41.50
2023-05-02T18:02:27.793Z,40.24
2023-05-02T18:04:54.987Z,40.42
2023-05-02T18:07:24.866Z,41.45
2023-05-02T18:09:52.164Z,41.31
2023-05-02T18:12:19.475Z,41.03
2023-05-02T18:14:46.537Z,41.00
2023-05-02T18:17:13.642Z,42.55
2023-05-02T18:19:41.481Z,42.97
2023-05-02T18:22:08.764Z,41.89
2023-05-02T18:24:36.422Z,41.81
2023-05-02T18:27:03.564Z,41.83
2023-05-02T18:29:31.324Z,41.30
2023-05-02T18:31:58.468Z,41.86
2023-05-02T18:34:25.607Z,44.05
2023-05-02T18:36:52.946Z,45.13
2023-05-02T18:39:21.686Z,43.48
2023-05-02T18:41:48.664Z,46.79
2023-05-02T18:44:15.626Z,46.52
2023-05-02T18:46:42.828Z,48.69
2023-05-02T18:49:09.916Z,52.76
2023-05-02T18:51:36.955Z,55.58
2023-05-02T18:54:04.134Z,55.62
2023-05-02T18:56:31.235Z,56.21
2023-05-02T18:58:58.909Z,54.84
2023-05-02T19:01:26.372Z,54.83
2023-05-02T19:03:54.178Z,56.36
2023-05-02T19:06:21.461Z,57.66
2023-05-02T19:08:49.243Z,59.55
2023-05-02T19:11:16.331Z,61.51
2023-05-02T19:13:43.467Z,64.17
2023-05-02T19:16:14.332Z,66.76
2023-05-02T19:18:41.491Z,66.50
2023-05-02T19:21:13.729Z,67.60
2023-05-02T19:23:41.958Z,70.56
2023-05-02T19:26:13.393Z,72.67
2023-05-02T19:28:40.466Z,70.90
2023-05-02T19:31:18.701Z,72.96
2023-05-02T19:33:52.883Z,74.12
2023-05-02T19:36:22.105Z,72.35
2023-05-02T19:38:58.364Z,72.58
2023-05-02T19:41:26.123Z,75.39
2023-05-02T19:43:53.465Z,75.79
2023-05-02T19:46:20.521Z,75.29
2023-05-02T19:48:47.771Z,75.17
2023-05-02T19:51:14.932Z,76.84
2023-05-02T19:53:42.031Z,77.39
2023-05-02T19:56:09.081Z,76.44
2023-05-02T19:58:36.208Z,76.68
2023-05-02T20:01:03.615Z,77.39
2023-05-02T20:03:30.867Z,78.25
2023-05-02T20:05:58.732Z,78.92
2023-05-02T20:08:29.114Z,78.59
2023-05-02T20:10:56.623Z,79.27
2023-05-02T20:13:23.736Z,79.95
2023-05-02T20:15:51.971Z,80.08
2023-05-02T20:18:19.944Z,80.37
2023-05-02T20:20:47.142Z,81.67
2023-05-02T20:23:14.430Z,81.88
2023-05-02T20:25:42.864Z,82.36
2023-05-02T20:28:10.436Z,84.29
2023-05-02T20:30:39.242Z,84.04
2023-05-02T20:33:14.969Z,83.48
2023-05-02T20:35:43.722Z,82.42
2023-05-02T20:38:11.287Z,80.77
2023-05-02T20:40:40.861Z,80.61
2023-05-02T20:43:08.936Z,79.40
2023-05-02T20:45:36.082Z,79.24
2023-05-02T20:48:03.259Z,79.60
2023-05-02T20:50:30.673Z,78.90
2023-05-02T20:52:58.208Z,78.58
2023-05-02T20:55:25.586Z,78.69
2023-05-02T20:57:53.708Z,78.36
2023-05-02T21:00:24.269Z,77.07
2023-05-02T21:02:51.529Z,76.94
2023-05-02T21:05:18.662Z,76.77
2023-05-02T21:07:45.805Z,78.30
2023-05-02T21:10:12.965Z,78.71
2023-05-02T21:12:40.151Z,78.12
2023-05-02T21:15:08.320Z,78.32
2023-05-02T21:17:35.511Z,77.14
2023-05-02T21:20:02.855Z,77.81
2023-05-02T21:22:30.166Z,78.19
2023-05-02T21:24:57.301Z,79.12
2023-05-02T21:27:24.464Z,78.65
2023-05-02T21:29:51.524Z,79.07
2023-05-02T21:32:18.755Z,79.59
2023-05-02T21:34:45.996Z,79.87
2023-05-02T21:37:13.016Z,79.17
2023-05-02T21:39:40.049Z,78.65
2023-05-02T21:42:07.107Z,78.86
2023-05-02T21:44:34.114Z,81.29
2023-05-02T21:47:01.197Z,81.09
2023-05-02T21:49:30.095Z,80.99
2023-05-02T21:51:58.493Z,80.23
2023-05-02T21:54:25.672Z,80.01
2023-05-02T21:56:54.215Z,81.43
2023-05-02T21:59:21.401Z,81.48
2023-05-02T22:01:48.516Z,81.16
2023-05-02T22:04:16.357Z,81.85
2023-05-02T22:06:43.793Z,81.73
2023-05-02T22:09:11.272Z,81.79
2023-05-02T22:11:38.592Z,82.94
2023-05-02T22:14:05.637Z,82.15
2023-05-02T22:16:32.803Z,80.88
2023-05-02T22:19:01.373Z,80.39
2023-05-02T22:21:29.121Z,82.48
2023-05-02T22:23:56.404Z,83.32
2023-05-02T22:26:23.779Z,83.83
2023-05-02T22:28:51.268Z,85.91
2023-05-02T22:31:19.527Z,83.15
2023-05-02T22:33:49.954Z,83.88
2023-05-02T22:36:20.718Z,82.70
2023-05-02T22:38:47.752Z,82.17
2023-05-02T22:41:14.779Z,81.70
2023-05-02T22:43:41.744Z,81.54
2023-05-02T22:46:08.799Z,82.56
2023-05-02T22:48:36.315Z,83.86
2023-05-02T22:51:03.396Z,83.79
2023-05-02T22:53:30.601Z,83.08
2023-05-02T22:55:57.622Z,82.02
2023-05-02T22:58:24.818Z,82.38
2023-05-02T23:00:52.210Z,82.34
2023-05-02T23:03:19.445Z,81.97
2023-05-02T23:05:46.594Z,81.29
2023-05-02T23:08:13.795Z,80.50
2023-05-02T23:10:40.965Z,80.00
2023-05-02T23:13:08.110Z,80.48
2023-05-02T23:15:35.328Z,81.40
2023-05-02T23:18:02.466Z,80.21
2023-05-02T23:20:29.566Z,79.45
2023-05-02T23:22:56.734Z,80.60
2023-05-02T23:25:27.490Z,82.73
2023-05-02T23:27:55.103Z,82.27
2023-05-02T23:30:22.735Z,83.40
2023-05-02T23:32:49.906Z,82.73
2023-05-02T23:35:17.055Z,84.11
2023-05-02T23:37:44.595Z,83.42
2023-05-02T23:40:11.772Z,83.78
2023-05-02T23:42:40.545Z,83.29
2023-05-02T23:45:11.119Z,82.28
2023-05-02T23:47:38.690Z,83.23
2023-05-02T23:50:06.587Z,83.33
2023-05-02T23:52:34.409Z,82.24
2023-05-02T23:55:01.725Z,82.48
2023-05-02T23:57:31.416Z,82.91
2023-05-02T23:59:58.475Z,82.10
